PH-0085 weather

Alto Airfield
Tarlac City, Tarlac Province, Philippines

Public forecast

Using degrees Celsius for public forecast. Weather courtesy of forecast.io.

METAR (pilot weather report)

Closest report is Diosdado Macapagal International Airport, 14.9 nm (27.6 km) SSW. Retrieved 2019/07/18 18:00 UTC (26 minutes ago):

RPLC 181800Z 18006KT 8000 FEW020 SCT100 BKN300 26/24 Q1006 NOSIG RMK A2971

TAF (pilot weather forecast)

Closest forecast is Diosdado Macapagal International Airport, 14.9 nm (27.6 km) SSW. Retrieved 2019/07/18 18:03 UTC (23 minutes ago):

TAF RPLC 181700Z 1818/1924 20006KT 9999 SCT020 BKN300 TX32/1906Z TN24/1821Z TEMPO 1918/1924 32008KT SCT020 BKN100